This is the latest recevied weather packets stored in our database for station/object EA5JMY-10. If no packets are shown the sender has not sent any weather packets the latest 10 day(s).
| Time | Temp. | Humidity | Pressure | Rain* | Wind** | Luminosity | Snow |
|---|---|---|---|---|---|---|---|
| 1788278113 | 30.56° C | 57% | 1019 hPa | - | - | - | - |
| 1788277213 | 31.11° C | 55% | 1019.5 hPa | - | - | - | - |
| 1788276312 | 30° C | 56% | 1020 hPa | - | - | - | - |
| 1788275412 | 30.56° C | 56% | 1020.3 hPa | - | - | - | - |
| 1788274512 | 31.11° C | 54% | 1020.6 hPa | - | - | - | - |
| 1788273612 | 30° C | 57% | 1020.6 hPa | - | - | - | - |
| 1788272712 | 31.67° C | 51% | 1020.6 hPa | - | - | - | - |
| 1788271812 | 30° C | 58% | 1020.7 hPa | - | - | - | - |
| 1788270912 | 30° C | 56% | 1020.9 hPa | - | - | - | - |
| 1788270012 | 31.11° C | 52% | 1021.3 hPa | - | - | - | - |
| 1788269112 | 32.22° C | 47% | 1021.4 hPa | - | - | - | - |
| 1788268211 | 32.22° C | 48% | 1021.1 hPa | - | - | - | - |
| 1788267311 | 32.78° C | 47% | 1021.3 hPa | - | - | - | - |
| 1788266411 | 33.33° C | 42% | 1021.1 hPa | - | - | - | - |
| 1788265511 | 33.33° C | 43% | 1020.9 hPa | - | - | - | - |
| 1788264611 | 35.56° C | 36% | 1021.2 hPa | - | - | - | - |
| 1788263711 | 33.33° C | 40% | 1021.1 hPa | - | - | - | - |
| 1788262811 | 33.33° C | 40% | 1021.6 hPa | - | - | - | - |
| 1788261911 | 33.89° C | 39% | 1021.9 hPa | - | - | - | - |
| 1788261011 | 34.44° C | 38% | 1021.7 hPa | - | - | - | - |
| 1788260110 | 33.89° C | 43% | 1021.7 hPa | - | - | - | - |
| 1788259218 | 32.22° C | 45% | 1022 hPa | - | - | - | - |
| 1788258310 | 33.33° C | 41% | 1022 hPa | - | - | - | - |
| 1788257410 | 34.44° C | 39% | 1022.1 hPa | - | - | - | - |
| 1788256510 | 33.89° C | 39% | 1022.2 hPa | - | - | - | - |
* Rain since midnight (hover to see other rain measurements)
** Current wind speed in m/s (hover to see current wind gust speed)